createdAt,value
2018-03-19T00:00:43.896Z,-2.70
2018-03-19T00:03:11.615Z,-2.70
2018-03-19T00:05:39.058Z,-2.80
2018-03-19T00:08:06.568Z,-2.80
2018-03-19T00:10:34.150Z,-2.80
2018-03-19T00:13:01.597Z,-2.80
2018-03-19T00:15:29.294Z,-2.80
2018-03-19T00:17:56.762Z,-2.90
2018-03-19T00:20:24.442Z,-2.90
2018-03-19T00:22:51.899Z,-2.90
2018-03-19T00:25:19.405Z,-2.90
2018-03-19T00:27:47.259Z,-3.00
2018-03-19T00:30:15.025Z,-3.00
2018-03-19T00:32:42.485Z,-3.00
2018-03-19T00:35:09.930Z,-3.00
2018-03-19T00:37:37.421Z,-3.00
2018-03-19T00:40:04.831Z,-3.00
2018-03-19T00:42:32.504Z,-3.00
2018-03-19T00:44:59.986Z,-3.10
2018-03-19T00:47:27.427Z,-3.10
2018-03-19T00:49:54.990Z,-3.10
2018-03-19T00:52:22.425Z,-3.10
2018-03-19T00:54:50.206Z,-3.10
2018-03-19T00:57:18.428Z,-3.20
2018-03-19T00:59:45.850Z,-3.10
2018-03-19T01:02:13.407Z,-3.20
2018-03-19T01:04:40.858Z,-3.20
2018-03-19T01:07:08.414Z,-3.20
2018-03-19T01:09:36.078Z,-3.30
2018-03-19T01:12:03.736Z,-3.30
2018-03-19T01:14:31.410Z,-3.30
2018-03-19T01:16:58.846Z,-3.40
2018-03-19T01:19:26.622Z,-3.40
2018-03-19T01:21:54.402Z,-3.40
2018-03-19T01:24:21.900Z,-3.50
2018-03-19T01:26:49.545Z,-3.40
2018-03-19T01:29:17.254Z,-3.40
2018-03-19T01:31:44.731Z,-3.50
2018-03-19T01:34:12.185Z,-3.50
2018-03-19T01:36:40.226Z,-3.50
2018-03-19T01:39:07.997Z,-3.50
2018-03-19T01:41:35.423Z,-3.50
2018-03-19T01:44:03.667Z,-3.50
2018-03-19T01:46:31.290Z,-3.60
2018-03-19T01:48:59.198Z,-3.50
2018-03-19T01:51:26.638Z,-3.60
2018-03-19T01:53:54.711Z,-3.60
2018-03-19T01:56:22.468Z,-3.60
2018-03-19T01:58:50.234Z,-3.60
2018-03-19T02:01:17.682Z,-3.70
2018-03-19T02:03:45.462Z,-3.70
2018-03-19T02:06:13.118Z,-3.70
2018-03-19T02:08:40.586Z,-3.70
2018-03-19T02:11:08.038Z,-3.70
2018-03-19T02:13:35.591Z,-3.70
2018-03-19T02:16:03.355Z,-3.70
2018-03-19T02:18:32.042Z,-3.70
2018-03-19T02:20:59.974Z,-3.80
2018-03-19T02:23:27.418Z,-3.70
2018-03-19T02:25:55.856Z,-3.80
2018-03-19T02:28:23.586Z,-3.80
2018-03-19T02:30:51.039Z,-3.80
2018-03-19T02:33:19.548Z,-3.90
2018-03-19T02:35:47.250Z,-3.90
2018-03-19T02:38:14.715Z,-3.80
2018-03-19T02:40:42.174Z,-3.90
2018-03-19T02:43:09.599Z,-3.90
2018-03-19T02:45:37.086Z,-3.90
2018-03-19T02:48:05.255Z,-3.90
2018-03-19T02:50:32.702Z,-4.00
2018-03-19T02:53:00.290Z,-4.00
2018-03-19T02:55:27.757Z,-4.00
2018-03-19T02:57:55.798Z,-4.00
2018-03-19T03:00:24.259Z,-4.10
2018-03-19T03:02:51.691Z,-4.10
2018-03-19T03:05:19.466Z,-4.10
2018-03-19T03:07:46.912Z,-4.10
2018-03-19T03:10:14.360Z,-4.10
2018-03-19T03:12:41.795Z,-4.10
2018-03-19T03:15:09.423Z,-4.10
2018-03-19T03:17:37.027Z,-4.10
2018-03-19T03:20:04.580Z,-4.10
2018-03-19T03:22:32.253Z,-4.10
2018-03-19T03:24:59.700Z,-4.20
2018-03-19T03:27:27.151Z,-4.20
2018-03-19T03:29:54.612Z,-4.10
2018-03-19T03:32:22.062Z,-4.10
2018-03-19T03:34:49.526Z,-4.20
2018-03-19T03:37:16.983Z,-4.20
2018-03-19T03:39:44.461Z,-4.20
2018-03-19T03:42:12.050Z,-4.20
2018-03-19T03:44:39.683Z,-4.20
2018-03-19T03:47:07.123Z,-4.20
2018-03-19T03:49:34.588Z,-4.30
2018-03-19T03:52:02.045Z,-4.30
2018-03-19T03:54:29.502Z,-4.30
2018-03-19T03:56:56.952Z,-4.40
2018-03-19T03:59:24.395Z,-4.40
2018-03-19T04:01:51.904Z,-4.40
2018-03-19T04:04:19.350Z,-4.40
2018-03-19T04:06:46.819Z,-4.40
2018-03-19T04:09:14.279Z,-4.40
2018-03-19T04:11:42.139Z,-4.50
2018-03-19T04:14:09.812Z,-4.50
2018-03-19T04:16:37.660Z,-4.40
2018-03-19T04:19:05.103Z,-4.40
2018-03-19T04:21:32.553Z,-4.50
2018-03-19T04:24:00.318Z,-4.50
2018-03-19T04:26:27.989Z,-4.50
2018-03-19T04:28:55.564Z,-4.50
2018-03-19T04:31:23.047Z,-4.50
2018-03-19T04:33:51.383Z,-4.60
2018-03-19T04:36:19.167Z,-4.50
2018-03-19T04:38:46.617Z,-4.50
2018-03-19T04:41:14.266Z,-4.60
2018-03-19T04:43:41.724Z,-4.60
2018-03-19T04:46:09.441Z,-4.60
2018-03-19T04:48:37.984Z,-4.60
2018-03-19T04:51:05.634Z,-4.60
2018-03-19T04:53:33.079Z,-4.60
2018-03-19T04:56:01.154Z,-4.60
2018-03-19T04:58:28.580Z,-4.60
2018-03-19T05:00:56.806Z,-4.60
2018-03-19T05:03:25.191Z,-4.60
2018-03-19T05:05:52.644Z,-4.60
2018-03-19T05:08:20.082Z,-4.60
2018-03-19T05:10:48.179Z,-4.60
2018-03-19T05:13:15.651Z,-4.70
2018-03-19T05:15:43.703Z,-4.70
2018-03-19T05:18:11.339Z,-4.70
2018-03-19T05:20:39.240Z,-4.70
2018-03-19T05:23:07.111Z,-4.70
2018-03-19T05:25:34.787Z,-4.80
2018-03-19T05:28:02.523Z,-4.80
2018-03-19T05:30:30.288Z,-4.70
2018-03-19T05:32:57.726Z,-4.80
2018-03-19T05:35:25.419Z,-4.80
2018-03-19T05:37:53.804Z,-4.80
2018-03-19T05:40:21.519Z,-4.80
2018-03-19T05:42:49.402Z,-4.90
2018-03-19T05:45:16.859Z,-4.90
2018-03-19T05:47:44.420Z,-4.80
2018-03-19T05:50:11.973Z,-4.80
2018-03-19T05:52:39.430Z,-4.80
2018-03-19T05:55:06.982Z,-4.90
2018-03-19T05:57:34.427Z,-4.90
2018-03-19T06:00:02.215Z,-4.90
2018-03-19T06:02:29.663Z,-4.80
2018-03-19T06:04:57.355Z,-4.80
2018-03-19T06:07:24.822Z,-4.80
2018-03-19T06:09:52.554Z,-4.80
2018-03-19T06:12:20.784Z,-4.80
2018-03-19T06:14:48.417Z,-4.80
2018-03-19T06:17:15.874Z,-4.70
2018-03-19T06:19:43.446Z,-4.70
2018-03-19T06:22:11.092Z,-4.60
2018-03-19T06:24:38.560Z,-4.60
2018-03-19T06:27:06.402Z,-4.60
2018-03-19T06:29:34.043Z,-4.60
2018-03-19T06:32:01.809Z,-4.50
2018-03-19T06:34:29.355Z,-4.50
2018-03-19T06:36:57.451Z,-4.40
2018-03-19T06:39:25.116Z,-4.40
2018-03-19T06:41:52.726Z,-4.30
2018-03-19T06:44:20.326Z,-4.30
2018-03-19T06:46:48.219Z,-4.20
2018-03-19T06:49:15.949Z,-4.20
2018-03-19T06:51:43.742Z,-4.20
2018-03-19T06:54:11.201Z,-4.00
2018-03-19T06:56:39.111Z,-3.90
2018-03-19T06:59:08.432Z,-3.90
2018-03-19T07:01:35.870Z,-3.90
2018-03-19T07:04:04.715Z,-3.90
2018-03-19T07:06:32.439Z,-3.90
2018-03-19T07:08:59.831Z,-3.70
2018-03-19T07:11:27.581Z,-3.70
2018-03-19T07:13:55.026Z,-3.50
2018-03-19T07:16:22.500Z,-3.30
2018-03-19T07:18:50.255Z,-3.30
2018-03-19T07:21:18.141Z,-3.40
2018-03-19T07:23:45.775Z,-3.40
2018-03-19T07:26:13.363Z,-3.30
2018-03-19T07:28:40.965Z,-3.20
2018-03-19T07:31:08.417Z,-3.10
2018-03-19T07:33:36.057Z,-3.00
2018-03-19T07:36:03.802Z,-3.00
2018-03-19T07:38:31.566Z,-2.90
2018-03-19T07:40:59.297Z,-2.90
2018-03-19T07:43:26.703Z,-2.90
2018-03-19T07:45:54.154Z,-2.80
2018-03-19T07:48:21.890Z,-2.60
2018-03-19T07:50:49.404Z,-2.60
2018-03-19T07:53:17.236Z,-2.60
2018-03-19T07:55:44.691Z,-2.50
2018-03-19T07:58:12.134Z,-2.10
2018-03-19T08:00:39.626Z,-1.50
2018-03-19T08:03:07.131Z,-1.00
2018-03-19T08:05:34.552Z,-0.70
2018-03-19T08:08:02.003Z,-0.70
2018-03-19T08:10:29.739Z,-0.40
2018-03-19T08:12:57.507Z,-0.40
2018-03-19T08:15:24.967Z,-0.40
2018-03-19T08:17:52.731Z,0.40
2018-03-19T08:20:20.181Z,1.00
2018-03-19T08:22:47.658Z,0.90
2018-03-19T08:25:15.225Z,0.90
2018-03-19T08:27:42.675Z,0.70
2018-03-19T08:30:10.627Z,1.10
2018-03-19T08:32:38.094Z,0.70
2018-03-19T08:35:05.731Z,1.30
2018-03-19T08:37:33.186Z,0.90
2018-03-19T08:40:01.063Z,1.10
2018-03-19T08:42:28.711Z,1.00
2018-03-19T08:44:56.292Z,1.10
2018-03-19T08:47:23.967Z,1.70
2018-03-19T08:49:51.566Z,1.90
2018-03-19T08:52:19.294Z,1.60
2018-03-19T08:54:47.040Z,1.70
2018-03-19T08:57:14.504Z,1.80
2018-03-19T08:59:42.275Z,2.40
2018-03-19T09:02:09.927Z,1.90
2018-03-19T09:04:37.379Z,2.60
2018-03-19T09:07:04.932Z,2.10
2018-03-19T09:09:32.435Z,3.00
2018-03-19T09:12:00.164Z,2.60
2018-03-19T09:14:27.931Z,2.90
2018-03-19T09:16:55.388Z,2.00
2018-03-19T09:19:23.021Z,2.20
2018-03-19T09:21:50.776Z,2.50
2018-03-19T09:24:18.368Z,2.10
2018-03-19T09:26:46.174Z,2.40
